sensor_id;sensor_type;location;lat;lon;timestamp;P1;durP1;ratioP1;P2;durP2;ratioP2
4122;SDS011;2075;51.062;6.920;2023-01-04T00:02:05;6.10;;;2.07;;
4122;SDS011;2075;51.062;6.920;2023-01-04T00:04:51;6.97;;;2.20;;
4122;SDS011;2075;51.062;6.920;2023-01-04T00:07:36;4.67;;;2.10;;
4122;SDS011;2075;51.062;6.920;2023-01-04T00:10:22;2.40;;;1.70;;
4122;SDS011;2075;51.062;6.920;2023-01-04T00:13:07;3.50;;;1.90;;
4122;SDS011;2075;51.062;6.920;2023-01-04T00:15:53;7.83;;;2.10;;
4122;SDS011;2075;51.062;6.920;2023-01-04T00:18:40;4.43;;;2.00;;
4122;SDS011;2075;51.062;6.920;2023-01-04T00:21:26;1.73;;;1.60;;
4122;SDS011;2075;51.062;6.920;2023-01-04T00:24:13;5.10;;;1.83;;
4122;SDS011;2075;51.062;6.920;2023-01-04T00:26:59;7.70;;;1.87;;
4122;SDS011;2075;51.062;6.920;2023-01-04T00:29:44;4.77;;;2.10;;
4122;SDS011;2075;51.062;6.920;2023-01-04T00:32:30;5.10;;;1.80;;
4122;SDS011;2075;51.062;6.920;2023-01-04T00:35:16;3.83;;;2.10;;
4122;SDS011;2075;51.062;6.920;2023-01-04T00:38:01;3.80;;;1.53;;
4122;SDS011;2075;51.062;6.920;2023-01-04T00:40:47;2.87;;;2.00;;
4122;SDS011;2075;51.062;6.920;2023-01-04T00:43:32;2.63;;;2.30;;
4122;SDS011;2075;51.062;6.920;2023-01-04T00:46:17;2.10;;;2.00;;
4122;SDS011;2075;51.062;6.920;2023-01-04T00:49:03;6.30;;;1.73;;
4122;SDS011;2075;51.062;6.920;2023-01-04T00:51:50;3.50;;;1.70;;
4122;SDS011;2075;51.062;6.920;2023-01-04T00:54:35;9.80;;;1.90;;
4122;SDS011;2075;51.062;6.920;2023-01-04T00:57:20;4.57;;;1.73;;
4122;SDS011;2075;51.062;6.920;2023-01-04T01:00:06;4.17;;;1.90;;
4122;SDS011;2075;51.062;6.920;2023-01-04T01:02:52;2.90;;;1.53;;
4122;SDS011;2075;51.062;6.920;2023-01-04T01:05:38;6.40;;;1.70;;
4122;SDS011;2075;51.062;6.920;2023-01-04T01:08:25;1.90;;;1.60;;
4122;SDS011;2075;51.062;6.920;2023-01-04T01:11:10;5.10;;;1.67;;
4122;SDS011;2075;51.062;6.920;2023-01-04T01:13:55;7.80;;;1.77;;
4122;SDS011;2075;51.062;6.920;2023-01-04T01:16:41;6.53;;;1.80;;
4122;SDS011;2075;51.062;6.920;2023-01-04T01:19:27;2.03;;;1.73;;
4122;SDS011;2075;51.062;6.920;2023-01-04T01:22:13;9.93;;;2.03;;
4122;SDS011;2075;51.062;6.920;2023-01-04T01:24:59;9.23;;;2.30;;
4122;SDS011;2075;51.062;6.920;2023-01-04T01:27:45;7.97;;;2.97;;
4122;SDS011;2075;51.062;6.920;2023-01-04T01:30:30;5.47;;;2.17;;
4122;SDS011;2075;51.062;6.920;2023-01-04T01:33:15;4.27;;;2.00;;
4122;SDS011;2075;51.062;6.920;2023-01-04T01:36:01;4.00;;;2.00;;
4122;SDS011;2075;51.062;6.920;2023-01-04T01:38:47;4.23;;;1.83;;
4122;SDS011;2075;51.062;6.920;2023-01-04T01:41:34;4.53;;;1.83;;
4122;SDS011;2075;51.062;6.920;2023-01-04T01:47:54;10.83;;;2.20;;
4122;SDS011;2075;51.062;6.920;2023-01-04T01:50:44;5.13;;;2.20;;
4122;SDS011;2075;51.062;6.920;2023-01-04T01:53:34;5.47;;;1.77;;
4122;SDS011;2075;51.062;6.920;2023-01-04T01:56:24;4.60;;;2.03;;
4122;SDS011;2075;51.062;6.920;2023-01-04T01:59:13;7.07;;;2.00;;
4122;SDS011;2075;51.062;6.920;2023-01-04T02:02:00;3.60;;;1.90;;
4122;SDS011;2075;51.062;6.920;2023-01-04T02:04:46;6.27;;;2.30;;
4122;SDS011;2075;51.062;6.920;2023-01-04T02:07:33;10.20;;;2.20;;
4122;SDS011;2075;51.062;6.920;2023-01-04T02:10:20;1.90;;;1.73;;
4122;SDS011;2075;51.062;6.920;2023-01-04T02:13:06;4.13;;;2.10;;
4122;SDS011;2075;51.062;6.920;2023-01-04T02:15:59;3.30;;;2.07;;
4122;SDS011;2075;51.062;6.920;2023-01-04T02:18:52;3.50;;;2.20;;
4122;SDS011;2075;51.062;6.920;2023-01-04T02:21:47;12.10;;;3.30;;
4122;SDS011;2075;51.062;6.920;2023-01-04T02:24:50;4.53;;;2.20;;
4122;SDS011;2075;51.062;6.920;2023-01-04T02:27:52;7.30;;;3.00;;
4122;SDS011;2075;51.062;6.920;2023-01-04T02:31:08;9.83;;;2.27;;
4122;SDS011;2075;51.062;6.920;2023-01-04T02:34:04;9.47;;;2.23;;
4122;SDS011;2075;51.062;6.920;2023-01-04T02:36:56;5.53;;;2.63;;
4122;SDS011;2075;51.062;6.920;2023-01-04T02:39:46;6.60;;;2.37;;
4122;SDS011;2075;51.062;6.920;2023-01-04T02:42:39;4.33;;;2.27;;
4122;SDS011;2075;51.062;6.920;2023-01-04T02:45:50;4.10;;;2.13;;
4122;SDS011;2075;51.062;6.920;2023-01-04T02:48:40;8.70;;;1.80;;
4122;SDS011;2075;51.062;6.920;2023-01-04T02:51:43;4.53;;;1.83;;
4122;SDS011;2075;51.062;6.920;2023-01-04T02:54:28;1.77;;;1.67;;
4122;SDS011;2075;51.062;6.920;2023-01-04T02:57:21;5.23;;;2.17;;
4122;SDS011;2075;51.062;6.920;2023-01-04T03:00:17;5.00;;;2.20;;
4122;SDS011;2075;51.062;6.920;2023-01-04T03:03:15;2.67;;;2.20;;
4122;SDS011;2075;51.062;6.920;2023-01-04T03:06:39;1.27;;;1.27;;
4122;SDS011;2075;51.062;6.920;2023-01-04T03:09:34;6.53;;;1.80;;
4122;SDS011;2075;51.062;6.920;2023-01-04T03:12:27;3.40;;;2.40;;
4122;SDS011;2075;51.062;6.920;2023-01-04T03:15:19;3.70;;;1.43;;
4122;SDS011;2075;51.062;6.920;2023-01-04T03:18:08;2.77;;;1.60;;
4122;SDS011;2075;51.062;6.920;2023-01-04T03:21:00;3.50;;;1.50;;
4122;SDS011;2075;51.062;6.920;2023-01-04T03:23:50;1.90;;;1.50;;
4122;SDS011;2075;51.062;6.920;2023-01-04T03:26:59;2.40;;;1.30;;
4122;SDS011;2075;51.062;6.920;2023-01-04T03:30:05;3.10;;;1.50;;
4122;SDS011;2075;51.062;6.920;2023-01-04T03:33:11;1.60;;;1.10;;
4122;SDS011;2075;51.062;6.920;2023-01-04T03:36:18;6.40;;;1.30;;
4122;SDS011;2075;51.062;6.920;2023-01-04T03:39:17;5.70;;;1.33;;
4122;SDS011;2075;51.062;6.920;2023-01-04T03:42:29;2.23;;;1.40;;
4122;SDS011;2075;51.062;6.920;2023-01-04T03:45:42;1.47;;;1.20;;
4122;SDS011;2075;51.062;6.920;2023-01-04T03:48:51;1.20;;;1.10;;
4122;SDS011;2075;51.062;6.920;2023-01-04T03:51:40;1.00;;;1.00;;
4122;SDS011;2075;51.062;6.920;2023-01-04T03:54:31;3.07;;;1.30;;
4122;SDS011;2075;51.062;6.920;2023-01-04T03:57:20;2.00;;;0.90;;
4122;SDS011;2075;51.062;6.920;2023-01-04T04:00:07;1.67;;;1.13;;
4122;SDS011;2075;51.062;6.920;2023-01-04T04:02:56;0.80;;;0.80;;
4122;SDS011;2075;51.062;6.920;2023-01-04T04:05:50;0.87;;;0.87;;
4122;SDS011;2075;51.062;6.920;2023-01-04T04:08:53;3.83;;;1.37;;
4122;SDS011;2075;51.062;6.920;2023-01-04T04:11:39;0.70;;;0.70;;
4122;SDS011;2075;51.062;6.920;2023-01-04T04:14:25;1.27;;;1.00;;
4122;SDS011;2075;51.062;6.920;2023-01-04T04:17:10;1.37;;;0.70;;
4122;SDS011;2075;51.062;6.920;2023-01-04T04:19:55;1.83;;;0.77;;
4122;SDS011;2075;51.062;6.920;2023-01-04T04:22:41;0.80;;;0.80;;
4122;SDS011;2075;51.062;6.920;2023-01-04T04:25:26;0.70;;;0.70;;
4122;SDS011;2075;51.062;6.920;2023-01-04T04:28:13;0.93;;;0.70;;
4122;SDS011;2075;51.062;6.920;2023-01-04T04:30:59;0.67;;;0.67;;
4122;SDS011;2075;51.062;6.920;2023-01-04T04:33:44;0.80;;;0.80;;
4122;SDS011;2075;51.062;6.920;2023-01-04T04:36:30;2.83;;;1.20;;
4122;SDS011;2075;51.062;6.920;2023-01-04T04:39:15;0.70;;;0.70;;
4122;SDS011;2075;51.062;6.920;2023-01-04T04:42:00;0.70;;;0.70;;
4122;SDS011;2075;51.062;6.920;2023-01-04T04:44:46;0.70;;;0.70;;
4122;SDS011;2075;51.062;6.920;2023-01-04T04:47:31;1.00;;;0.80;;
4122;SDS011;2075;51.062;6.920;2023-01-04T04:50:17;0.87;;;0.80;;
4122;SDS011;2075;51.062;6.920;2023-01-04T04:53:02;0.80;;;0.80;;
4122;SDS011;2075;51.062;6.920;2023-01-04T04:55:49;0.70;;;0.70;;
4122;SDS011;2075;51.062;6.920;2023-01-04T04:58:34;0.93;;;0.73;;
4122;SDS011;2075;51.062;6.920;2023-01-04T05:01:21;0.87;;;0.70;;
4122;SDS011;2075;51.062;6.920;2023-01-04T05:04:07;3.43;;;0.70;;
4122;SDS011;2075;51.062;6.920;2023-01-04T05:06:56;1.27;;;0.97;;
4122;SDS011;2075;51.062;6.920;2023-01-04T05:09:42;0.90;;;0.90;;
4122;SDS011;2075;51.062;6.920;2023-01-04T05:12:27;2.77;;;2.10;;
4122;SDS011;2075;51.062;6.920;2023-01-04T05:15:31;1.13;;;0.80;;
4122;SDS011;2075;51.062;6.920;2023-01-04T05:18:20;0.80;;;0.80;;
4122;SDS011;2075;51.062;6.920;2023-01-04T05:21:06;2.00;;;1.00;;
4122;SDS011;2075;51.062;6.920;2023-01-04T05:23:51;0.97;;;0.97;;
4122;SDS011;2075;51.062;6.920;2023-01-04T05:26:37;0.70;;;0.70;;
4122;SDS011;2075;51.062;6.920;2023-01-04T05:29:22;0.60;;;0.60;;
4122;SDS011;2075;51.062;6.920;2023-01-04T05:32:25;0.90;;;0.90;;
4122;SDS011;2075;51.062;6.920;2023-01-04T05:35:12;1.53;;;0.67;;
4122;SDS011;2075;51.062;6.920;2023-01-04T05:37:57;0.57;;;0.57;;
4122;SDS011;2075;51.062;6.920;2023-01-04T05:40:42;0.70;;;0.70;;
4122;SDS011;2075;51.062;6.920;2023-01-04T05:43:28;0.97;;;0.97;;
4122;SDS011;2075;51.062;6.920;2023-01-04T05:46:13;0.77;;;0.77;;
4122;SDS011;2075;51.062;6.920;2023-01-04T05:48:59;0.80;;;0.80;;
4122;SDS011;2075;51.062;6.920;2023-01-04T05:51:46;1.03;;;0.90;;
4122;SDS011;2075;51.062;6.920;2023-01-04T05:54:31;0.60;;;0.60;;
4122;SDS011;2075;51.062;6.920;2023-01-04T05:57:16;0.60;;;0.60;;
4122;SDS011;2075;51.062;6.920;2023-01-04T06:00:02;0.70;;;0.70;;
4122;SDS011;2075;51.062;6.920;2023-01-04T06:02:56;0.63;;;0.63;;
4122;SDS011;2075;51.062;6.920;2023-01-04T06:05:41;0.80;;;0.63;;
4122;SDS011;2075;51.062;6.920;2023-01-04T06:08:29;1.23;;;0.70;;
4122;SDS011;2075;51.062;6.920;2023-01-04T06:11:14;1.53;;;0.70;;
4122;SDS011;2075;51.062;6.920;2023-01-04T06:14:00;1.80;;;0.70;;
4122;SDS011;2075;51.062;6.920;2023-01-04T06:16:45;1.87;;;0.90;;
4122;SDS011;2075;51.062;6.920;2023-01-04T06:19:31;0.70;;;0.70;;
4122;SDS011;2075;51.062;6.920;2023-01-04T06:22:16;1.17;;;0.90;;
4122;SDS011;2075;51.062;6.920;2023-01-04T06:25:03;0.77;;;0.77;;
4122;SDS011;2075;51.062;6.920;2023-01-04T06:27:49;1.33;;;1.33;;
4122;SDS011;2075;51.062;6.920;2023-01-04T06:30:34;0.90;;;0.90;;
4122;SDS011;2075;51.062;6.920;2023-01-04T06:33:19;0.70;;;0.70;;
4122;SDS011;2075;51.062;6.920;2023-01-04T06:36:05;1.00;;;1.00;;
4122;SDS011;2075;51.062;6.920;2023-01-04T06:38:50;0.73;;;0.73;;
4122;SDS011;2075;51.062;6.920;2023-01-04T06:41:37;1.13;;;1.10;;
4122;SDS011;2075;51.062;6.920;2023-01-04T06:44:23;0.90;;;0.90;;
4122;SDS011;2075;51.062;6.920;2023-01-04T06:47:08;1.07;;;0.90;;
4122;SDS011;2075;51.062;6.920;2023-01-04T06:49:53;0.70;;;0.70;;
4122;SDS011;2075;51.062;6.920;2023-01-04T06:52:39;1.03;;;0.90;;
4122;SDS011;2075;51.062;6.920;2023-01-04T06:55:25;1.00;;;1.00;;
4122;SDS011;2075;51.062;6.920;2023-01-04T06:58:13;0.80;;;0.80;;
4122;SDS011;2075;51.062;6.920;2023-01-04T07:00:59;0.80;;;0.80;;
4122;SDS011;2075;51.062;6.920;2023-01-04T07:03:44;1.37;;;0.80;;
4122;SDS011;2075;51.062;6.920;2023-01-04T07:06:29;0.70;;;0.70;;
4122;SDS011;2075;51.062;6.920;2023-01-04T07:09:15;0.60;;;0.60;;
4122;SDS011;2075;51.062;6.920;2023-01-04T07:12:00;1.27;;;0.73;;
4122;SDS011;2075;51.062;6.920;2023-01-04T07:14:47;0.70;;;0.70;;
4122;SDS011;2075;51.062;6.920;2023-01-04T07:17:32;0.80;;;0.80;;
4122;SDS011;2075;51.062;6.920;2023-01-04T07:20:18;0.70;;;0.70;;
4122;SDS011;2075;51.062;6.920;2023-01-04T07:23:03;0.60;;;0.60;;
4122;SDS011;2075;51.062;6.920;2023-01-04T07:25:49;0.93;;;0.87;;
4122;SDS011;2075;51.062;6.920;2023-01-04T07:28:35;2.47;;;0.90;;
4122;SDS011;2075;51.062;6.920;2023-01-04T07:31:39;0.73;;;0.73;;
4122;SDS011;2075;51.062;6.920;2023-01-04T07:34:25;2.00;;;1.10;;
4122;SDS011;2075;51.062;6.920;2023-01-04T07:37:12;1.23;;;1.23;;
4122;SDS011;2075;51.062;6.920;2023-01-04T07:39:58;1.10;;;0.97;;
4122;SDS011;2075;51.062;6.920;2023-01-04T07:42:43;1.00;;;1.00;;
4122;SDS011;2075;51.062;6.920;2023-01-04T07:45:37;2.90;;;1.53;;
4122;SDS011;2075;51.062;6.920;2023-01-04T07:48:24;10.03;;;1.30;;
4122;SDS011;2075;51.062;6.920;2023-01-04T07:51:12;1.73;;;1.10;;
4122;SDS011;2075;51.062;6.920;2023-01-04T07:53:57;0.80;;;0.80;;
4122;SDS011;2075;51.062;6.920;2023-01-04T07:56:43;2.57;;;1.50;;
4122;SDS011;2075;51.062;6.920;2023-01-04T07:59:29;1.70;;;1.03;;
4122;SDS011;2075;51.062;6.920;2023-01-04T08:02:15;1.23;;;1.13;;
4122;SDS011;2075;51.062;6.920;2023-01-04T08:05:02;1.10;;;1.10;;
4122;SDS011;2075;51.062;6.920;2023-01-04T08:07:49;0.90;;;0.90;;
4122;SDS011;2075;51.062;6.920;2023-01-04T08:10:35;1.20;;;1.10;;
4122;SDS011;2075;51.062;6.920;2023-01-04T08:13:21;1.50;;;1.40;;
4122;SDS011;2075;51.062;6.920;2023-01-04T08:16:07;1.00;;;1.00;;
4122;SDS011;2075;51.062;6.920;2023-01-04T08:19:02;3.13;;;1.60;;
4122;SDS011;2075;51.062;6.920;2023-01-04T08:21:49;1.37;;;1.27;;
4122;SDS011;2075;51.062;6.920;2023-01-04T08:24:34;0.90;;;0.90;;
4122;SDS011;2075;51.062;6.920;2023-01-04T08:27:20;3.53;;;0.87;;
4122;SDS011;2075;51.062;6.920;2023-01-04T08:30:06;0.90;;;0.90;;
4122;SDS011;2075;51.062;6.920;2023-01-04T08:32:53;0.90;;;0.90;;
4122;SDS011;2075;51.062;6.920;2023-01-04T08:35:38;2.33;;;1.20;;
4122;SDS011;2075;51.062;6.920;2023-01-04T08:38:25;1.40;;;1.33;;
4122;SDS011;2075;51.062;6.920;2023-01-04T08:41:10;1.27;;;0.90;;
4122;SDS011;2075;51.062;6.920;2023-01-04T08:43:56;0.93;;;0.93;;
4122;SDS011;2075;51.062;6.920;2023-01-04T08:46:42;1.90;;;1.20;;
4122;SDS011;2075;51.062;6.920;2023-01-04T08:49:27;1.10;;;1.10;;
4122;SDS011;2075;51.062;6.920;2023-01-04T08:52:13;1.33;;;1.20;;
4122;SDS011;2075;51.062;6.920;2023-01-04T08:55:00;1.20;;;0.97;;
4122;SDS011;2075;51.062;6.920;2023-01-04T08:57:45;2.53;;;2.17;;
4122;SDS011;2075;51.062;6.920;2023-01-04T09:00:30;3.60;;;1.43;;
4122;SDS011;2075;51.062;6.920;2023-01-04T09:03:16;1.80;;;1.70;;
4122;SDS011;2075;51.062;6.920;2023-01-04T09:06:02;1.87;;;1.67;;
4122;SDS011;2075;51.062;6.920;2023-01-04T09:08:48;1.20;;;1.20;;
4122;SDS011;2075;51.062;6.920;2023-01-04T09:11:36;1.20;;;1.20;;
4122;SDS011;2075;51.062;6.920;2023-01-04T09:14:21;1.23;;;0.80;;
4122;SDS011;2075;51.062;6.920;2023-01-04T09:17:07;2.10;;;1.90;;
4122;SDS011;2075;51.062;6.920;2023-01-04T09:19:52;0.80;;;0.80;;
4122;SDS011;2075;51.062;6.920;2023-01-04T09:22:38;0.80;;;0.80;;
4122;SDS011;2075;51.062;6.920;2023-01-04T09:25:23;0.97;;;0.97;;
4122;SDS011;2075;51.062;6.920;2023-01-04T09:28:10;0.90;;;0.90;;
4122;SDS011;2075;51.062;6.920;2023-01-04T09:30:55;1.13;;;1.00;;
4122;SDS011;2075;51.062;6.920;2023-01-04T09:33:41;2.73;;;1.33;;
4122;SDS011;2075;51.062;6.920;2023-01-04T09:36:27;0.90;;;0.90;;
4122;SDS011;2075;51.062;6.920;2023-01-04T09:39:13;6.93;;;1.10;;
4122;SDS011;2075;51.062;6.920;2023-01-04T09:42:00;0.90;;;0.90;;
4122;SDS011;2075;51.062;6.920;2023-01-04T09:44:49;1.50;;;1.40;;
4122;SDS011;2075;51.062;6.920;2023-01-04T09:47:40;1.80;;;1.10;;
4122;SDS011;2075;51.062;6.920;2023-01-04T09:50:30;2.97;;;1.30;;
4122;SDS011;2075;51.062;6.920;2023-01-04T09:53:21;1.03;;;0.90;;
4122;SDS011;2075;51.062;6.920;2023-01-04T09:56:12;0.80;;;0.80;;
4122;SDS011;2075;51.062;6.920;2023-01-04T09:59:05;0.80;;;0.80;;
4122;SDS011;2075;51.062;6.920;2023-01-04T10:01:56;1.30;;;1.20;;
4122;SDS011;2075;51.062;6.920;2023-01-04T10:04:46;0.80;;;0.80;;
4122;SDS011;2075;51.062;6.920;2023-01-04T10:07:33;1.87;;;1.10;;
4122;SDS011;2075;51.062;6.920;2023-01-04T10:10:20;2.33;;;0.90;;
4122;SDS011;2075;51.062;6.920;2023-01-04T10:13:15;2.93;;;1.47;;
4122;SDS011;2075;51.062;6.920;2023-01-04T10:16:12;1.70;;;1.03;;
4122;SDS011;2075;51.062;6.920;2023-01-04T10:19:05;0.80;;;0.80;;
4122;SDS011;2075;51.062;6.920;2023-01-04T10:22:01;1.07;;;0.97;;
4122;SDS011;2075;51.062;6.920;2023-01-04T10:24:55;1.20;;;1.10;;
4122;SDS011;2075;51.062;6.920;2023-01-04T10:27:54;0.97;;;0.97;;
4122;SDS011;2075;51.062;6.920;2023-01-04T10:30:49;2.17;;;1.00;;
4122;SDS011;2075;51.062;6.920;2023-01-04T10:33:45;1.30;;;1.20;;
4122;SDS011;2075;51.062;6.920;2023-01-04T10:36:33;1.30;;;1.20;;
4122;SDS011;2075;51.062;6.920;2023-01-04T10:39:20;2.53;;;1.10;;
4122;SDS011;2075;51.062;6.920;2023-01-04T10:42:09;2.30;;;0.90;;
4122;SDS011;2075;51.062;6.920;2023-01-04T10:45:07;1.60;;;1.50;;
4122;SDS011;2075;51.062;6.920;2023-01-04T10:47:58;2.23;;;1.23;;
4122;SDS011;2075;51.062;6.920;2023-01-04T10:50:52;0.97;;;0.97;;
4122;SDS011;2075;51.062;6.920;2023-01-04T10:53:42;0.87;;;0.87;;
4122;SDS011;2075;51.062;6.920;2023-01-04T10:56:33;1.30;;;1.20;;
4122;SDS011;2075;51.062;6.920;2023-01-04T10:59:25;1.00;;;1.00;;
4122;SDS011;2075;51.062;6.920;2023-01-04T11:02:18;1.40;;;1.30;;
4122;SDS011;2075;51.062;6.920;2023-01-04T11:05:15;1.50;;;1.40;;
4122;SDS011;2075;51.062;6.920;2023-01-04T11:08:04;1.10;;;1.10;;
4122;SDS011;2075;51.062;6.920;2023-01-04T11:10:58;2.40;;;1.23;;
4122;SDS011;2075;51.062;6.920;2023-01-04T11:13:48;1.73;;;1.47;;
4122;SDS011;2075;51.062;6.920;2023-01-04T11:16:34;2.30;;;1.57;;
4122;SDS011;2075;51.062;6.920;2023-01-04T11:19:19;1.60;;;1.50;;
4122;SDS011;2075;51.062;6.920;2023-01-04T11:22:06;2.83;;;1.20;;
4122;SDS011;2075;51.062;6.920;2023-01-04T11:25:00;1.20;;;1.00;;
4122;SDS011;2075;51.062;6.920;2023-01-04T11:27:50;1.90;;;1.80;;
4122;SDS011;2075;51.062;6.920;2023-01-04T11:30:43;5.57;;;1.40;;
4122;SDS011;2075;51.062;6.920;2023-01-04T11:36:38;4.40;;;2.17;;
4122;SDS011;2075;51.062;6.920;2023-01-04T11:39:24;11.73;;;5.80;;
4122;SDS011;2075;51.062;6.920;2023-01-04T11:42:13;1.40;;;1.30;;
4122;SDS011;2075;51.062;6.920;2023-01-04T11:45:05;3.57;;;1.07;;
4122;SDS011;2075;51.062;6.920;2023-01-04T11:48:01;6.33;;;1.10;;
4122;SDS011;2075;51.062;6.920;2023-01-04T11:50:49;0.80;;;0.80;;
4122;SDS011;2075;51.062;6.920;2023-01-04T11:53:39;1.00;;;1.00;;
4122;SDS011;2075;51.062;6.920;2023-01-04T11:56:24;1.00;;;1.00;;
4122;SDS011;2075;51.062;6.920;2023-01-04T11:59:13;0.87;;;0.87;;
4122;SDS011;2075;51.062;6.920;2023-01-04T12:05:11;0.80;;;0.80;;
4122;SDS011;2075;51.062;6.920;2023-01-04T12:08:01;4.73;;;0.80;;
4122;SDS011;2075;51.062;6.920;2023-01-04T12:10:47;0.90;;;0.90;;
4122;SDS011;2075;51.062;6.920;2023-01-04T12:13:33;0.80;;;0.80;;
4122;SDS011;2075;51.062;6.920;2023-01-04T12:16:20;0.70;;;0.70;;
4122;SDS011;2075;51.062;6.920;2023-01-04T12:19:24;1.20;;;1.10;;
4122;SDS011;2075;51.062;6.920;2023-01-04T12:22:15;5.30;;;1.00;;
4122;SDS011;2075;51.062;6.920;2023-01-04T12:25:06;0.70;;;0.70;;
4122;SDS011;2075;51.062;6.920;2023-01-04T12:28:04;3.00;;;1.00;;
4122;SDS011;2075;51.062;6.920;2023-01-04T12:30:50;0.87;;;0.87;;
4122;SDS011;2075;51.062;6.920;2023-01-04T12:33:36;0.80;;;0.80;;
4122;SDS011;2075;51.062;6.920;2023-01-04T12:39:40;1.20;;;1.10;;
4122;SDS011;2075;51.062;6.920;2023-01-04T12:42:27;1.73;;;0.70;;
4122;SDS011;2075;51.062;6.920;2023-01-04T12:45:13;1.83;;;0.90;;
4122;SDS011;2075;51.062;6.920;2023-01-04T12:48:15;1.07;;;0.60;;
4122;SDS011;2075;51.062;6.920;2023-01-04T12:51:39;0.80;;;0.80;;
4122;SDS011;2075;51.062;6.920;2023-01-04T12:54:24;0.70;;;0.70;;
4122;SDS011;2075;51.062;6.920;2023-01-04T12:57:22;0.80;;;0.80;;
4122;SDS011;2075;51.062;6.920;2023-01-04T13:00:09;0.70;;;0.70;;
4122;SDS011;2075;51.062;6.920;2023-01-04T13:06:15;0.73;;;0.73;;
4122;SDS011;2075;51.062;6.920;2023-01-04T13:09:09;0.90;;;0.70;;
4122;SDS011;2075;51.062;6.920;2023-01-04T13:12:17;0.70;;;0.70;;
4122;SDS011;2075;51.062;6.920;2023-01-04T13:15:23;0.60;;;0.60;;
4122;SDS011;2075;51.062;6.920;2023-01-04T13:18:26;1.20;;;0.60;;
4122;SDS011;2075;51.062;6.920;2023-01-04T13:21:19;0.80;;;0.80;;
4122;SDS011;2075;51.062;6.920;2023-01-04T13:24:16;0.80;;;0.80;;
4122;SDS011;2075;51.062;6.920;2023-01-04T13:27:06;0.73;;;0.73;;
4122;SDS011;2075;51.062;6.920;2023-01-04T13:29:53;0.60;;;0.60;;
4122;SDS011;2075;51.062;6.920;2023-01-04T13:32:39;1.00;;;0.90;;
4122;SDS011;2075;51.062;6.920;2023-01-04T13:35:24;0.70;;;0.70;;
4122;SDS011;2075;51.062;6.920;2023-01-04T13:38:11;0.70;;;0.70;;
4122;SDS011;2075;51.062;6.920;2023-01-04T13:40:59;2.87;;;0.70;;
4122;SDS011;2075;51.062;6.920;2023-01-04T13:43:49;0.70;;;0.70;;
4122;SDS011;2075;51.062;6.920;2023-01-04T13:46:46;0.70;;;0.70;;
4122;SDS011;2075;51.062;6.920;2023-01-04T13:49:36;0.70;;;0.70;;
4122;SDS011;2075;51.062;6.920;2023-01-04T13:52:22;0.60;;;0.60;;
4122;SDS011;2075;51.062;6.920;2023-01-04T13:55:09;0.67;;;0.67;;
4122;SDS011;2075;51.062;6.920;2023-01-04T13:57:57;0.73;;;0.70;;
4122;SDS011;2075;51.062;6.920;2023-01-04T14:00:44;1.50;;;1.40;;
4122;SDS011;2075;51.062;6.920;2023-01-04T14:03:33;1.00;;;0.97;;
4122;SDS011;2075;51.062;6.920;2023-01-04T14:06:22;0.70;;;0.70;;
4122;SDS011;2075;51.062;6.920;2023-01-04T14:09:14;6.63;;;0.77;;
4122;SDS011;2075;51.062;6.920;2023-01-04T14:12:06;0.63;;;0.63;;
4122;SDS011;2075;51.062;6.920;2023-01-04T14:14:59;0.70;;;0.70;;
4122;SDS011;2075;51.062;6.920;2023-01-04T14:17:51;2.30;;;0.70;;
4122;SDS011;2075;51.062;6.920;2023-01-04T14:20:38;1.60;;;0.80;;
4122;SDS011;2075;51.062;6.920;2023-01-04T14:23:24;1.50;;;1.23;;
4122;SDS011;2075;51.062;6.920;2023-01-04T14:26:28;0.93;;;0.93;;
4122;SDS011;2075;51.062;6.920;2023-01-04T14:29:20;1.43;;;1.30;;
4122;SDS011;2075;51.062;6.920;2023-01-04T14:32:08;0.70;;;0.70;;
4122;SDS011;2075;51.062;6.920;2023-01-04T14:34:53;0.77;;;0.77;;
4122;SDS011;2075;51.062;6.920;2023-01-04T14:37:39;2.00;;;0.70;;
4122;SDS011;2075;51.062;6.920;2023-01-04T14:40:25;0.80;;;0.80;;
4122;SDS011;2075;51.062;6.920;2023-01-04T14:43:31;0.60;;;0.60;;
4122;SDS011;2075;51.062;6.920;2023-01-04T14:46:18;0.80;;;0.80;;
4122;SDS011;2075;51.062;6.920;2023-01-04T14:49:05;0.80;;;0.80;;
4122;SDS011;2075;51.062;6.920;2023-01-04T14:51:51;3.30;;;0.77;;
4122;SDS011;2075;51.062;6.920;2023-01-04T14:54:38;3.13;;;1.03;;
4122;SDS011;2075;51.062;6.920;2023-01-04T14:57:23;0.70;;;0.70;;
4122;SDS011;2075;51.062;6.920;2023-01-04T15:00:11;1.23;;;0.63;;
4122;SDS011;2075;51.062;6.920;2023-01-04T15:02:57;1.00;;;1.00;;
4122;SDS011;2075;51.062;6.920;2023-01-04T15:05:44;1.17;;;1.07;;
4122;SDS011;2075;51.062;6.920;2023-01-04T15:08:30;2.63;;;0.90;;
4122;SDS011;2075;51.062;6.920;2023-01-04T15:11:16;0.90;;;0.90;;
4122;SDS011;2075;51.062;6.920;2023-01-04T15:14:03;0.93;;;0.90;;
4122;SDS011;2075;51.062;6.920;2023-01-04T15:16:48;0.80;;;0.80;;
4122;SDS011;2075;51.062;6.920;2023-01-04T15:19:33;1.13;;;1.00;;
4122;SDS011;2075;51.062;6.920;2023-01-04T15:22:20;1.10;;;1.10;;
4122;SDS011;2075;51.062;6.920;2023-01-04T15:25:06;1.37;;;1.27;;
4122;SDS011;2075;51.062;6.920;2023-01-04T15:27:53;1.37;;;1.27;;
4122;SDS011;2075;51.062;6.920;2023-01-04T15:30:39;1.50;;;1.40;;
4122;SDS011;2075;51.062;6.920;2023-01-04T15:33:26;1.80;;;1.70;;
4122;SDS011;2075;51.062;6.920;2023-01-04T15:36:15;1.47;;;1.37;;
4122;SDS011;2075;51.062;6.920;2023-01-04T15:39:03;1.20;;;1.20;;
4122;SDS011;2075;51.062;6.920;2023-01-04T15:41:49;1.70;;;1.60;;
4122;SDS011;2075;51.062;6.920;2023-01-04T15:44:51;1.43;;;1.33;;
4122;SDS011;2075;51.062;6.920;2023-01-04T15:47:37;3.83;;;2.00;;
4122;SDS011;2075;51.062;6.920;2023-01-04T15:50:22;2.10;;;1.50;;
4122;SDS011;2075;51.062;6.920;2023-01-04T15:53:08;2.50;;;1.87;;
4122;SDS011;2075;51.062;6.920;2023-01-04T15:56:02;1.37;;;1.33;;
4122;SDS011;2075;51.062;6.920;2023-01-04T15:58:50;2.03;;;1.77;;
4122;SDS011;2075;51.062;6.920;2023-01-04T16:01:37;1.30;;;1.30;;
4122;SDS011;2075;51.062;6.920;2023-01-04T16:04:23;1.20;;;1.20;;
4122;SDS011;2075;51.062;6.920;2023-01-04T16:07:08;1.10;;;1.10;;
4122;SDS011;2075;51.062;6.920;2023-01-04T16:09:54;0.90;;;0.90;;
4122;SDS011;2075;51.062;6.920;2023-01-04T16:12:40;0.90;;;0.90;;
4122;SDS011;2075;51.062;6.920;2023-01-04T16:15:26;1.20;;;1.10;;
4122;SDS011;2075;51.062;6.920;2023-01-04T16:18:11;1.77;;;1.07;;
4122;SDS011;2075;51.062;6.920;2023-01-04T16:20:57;1.37;;;1.00;;
4122;SDS011;2075;51.062;6.920;2023-01-04T16:23:42;1.57;;;1.20;;
4122;SDS011;2075;51.062;6.920;2023-01-04T16:26:32;1.57;;;1.10;;
4122;SDS011;2075;51.062;6.920;2023-01-04T16:29:19;2.40;;;1.10;;
4122;SDS011;2075;51.062;6.920;2023-01-04T16:32:06;1.00;;;1.00;;
4122;SDS011;2075;51.062;6.920;2023-01-04T16:34:52;1.00;;;1.00;;
4122;SDS011;2075;51.062;6.920;2023-01-04T16:37:37;2.47;;;1.10;;
4122;SDS011;2075;51.062;6.920;2023-01-04T16:40:22;1.10;;;1.10;;
4122;SDS011;2075;51.062;6.920;2023-01-04T16:43:08;1.40;;;1.40;;
4122;SDS011;2075;51.062;6.920;2023-01-04T16:49:06;1.13;;;1.13;;
4122;SDS011;2075;51.062;6.920;2023-01-04T16:51:54;1.30;;;1.30;;
4122;SDS011;2075;51.062;6.920;2023-01-04T16:54:39;1.73;;;1.20;;
4122;SDS011;2075;51.062;6.920;2023-01-04T16:57:25;1.07;;;1.07;;
4122;SDS011;2075;51.062;6.920;2023-01-04T17:00:11;5.80;;;1.60;;
4122;SDS011;2075;51.062;6.920;2023-01-04T17:02:58;1.17;;;1.17;;
4122;SDS011;2075;51.062;6.920;2023-01-04T17:05:44;3.43;;;1.10;;
4122;SDS011;2075;51.062;6.920;2023-01-04T17:08:29;3.93;;;1.30;;
4122;SDS011;2075;51.062;6.920;2023-01-04T17:11:15;1.33;;;1.10;;
4122;SDS011;2075;51.062;6.920;2023-01-04T17:14:03;1.17;;;1.07;;
4122;SDS011;2075;51.062;6.920;2023-01-04T17:16:50;0.77;;;0.77;;
4122;SDS011;2075;51.062;6.920;2023-01-04T17:19:37;1.40;;;1.30;;
4122;SDS011;2075;51.062;6.920;2023-01-04T17:22:23;1.13;;;1.00;;
4122;SDS011;2075;51.062;6.920;2023-01-04T17:25:08;1.30;;;1.20;;
4122;SDS011;2075;51.062;6.920;2023-01-04T17:27:54;2.17;;;1.50;;
4122;SDS011;2075;51.062;6.920;2023-01-04T17:30:40;3.80;;;1.90;;
4122;SDS011;2075;51.062;6.920;2023-01-04T17:33:25;4.63;;;1.70;;
4122;SDS011;2075;51.062;6.920;2023-01-04T17:36:12;5.63;;;1.80;;
4122;SDS011;2075;51.062;6.920;2023-01-04T17:39:01;5.50;;;1.73;;
4122;SDS011;2075;51.062;6.920;2023-01-04T17:41:46;4.53;;;1.83;;
4122;SDS011;2075;51.062;6.920;2023-01-04T17:44:32;4.50;;;2.10;;
4122;SDS011;2075;51.062;6.920;2023-01-04T17:47:18;10.37;;;2.73;;
4122;SDS011;2075;51.062;6.920;2023-01-04T17:50:03;7.27;;;2.60;;